Time;durP1;ratioP1;P1;durP2;ratioP2;P2;SDS_P1;SDS_P2;PMS_P1;PMS_P2;Temp;Humidity;BMP_temperature;BMP_pressure;BME280_temperature;BME280_humidity;BME280_pressure;Samples;Min_cycle;Max_cycle;Signal;HPM_P1;HPM_P2
2022/06/21 00:01:51;;;;;;;;;;;12.80;99.90;;;;;;5066056;28;19944;-88
2022/06/21 00:04:18;;;;;;;;;;;12.80;99.90;;;;;;5065972;28;19921;-88
2022/06/21 00:06:45;;;;;;;;;;;12.80;99.90;;;;;;5065774;28;19984;-88
2022/06/21 00:09:12;;;;;;;;;;;12.70;99.90;;;;;;5065899;28;19927;-87
2022/06/21 00:11:39;;;;;;;;;;;12.70;99.90;;;;;;5066189;28;19921;-87
2022/06/21 00:14:06;;;;;;;;;;;12.60;99.90;;;;;;5065878;28;19921;-87
2022/06/21 00:16:33;;;;;;;;;;;12.50;99.90;;;;;;5065423;28;19928;-87
2022/06/21 00:19:02;;;;;;;;;;;12.50;99.90;;;;;;5065596;28;19921;-87
2022/06/21 00:21:31;;;;;;;;;;;12.50;99.90;;;;;;5065520;28;19952;-87
2022/06/21 00:23:58;;;;;;;;;;;12.30;99.90;;;;;;5065551;28;19921;-87
2022/06/21 00:26:26;;;;;;;;;;;12.30;99.90;;;;;;5065407;28;20227;-87
2022/06/21 00:28:53;;;;;;;;;;;12.20;99.90;;;;;;5065913;28;19960;-87
2022/06/21 00:31:21;;;;;;;;;;;12.10;99.90;;;;;;5065500;28;19921;-87
2022/06/21 00:33:48;;;;;;;;;;;12.10;99.90;;;;;;5065360;28;20179;-87
2022/06/21 00:36:19;;;;;;;;;;;12.10;99.90;;;;;;5065206;28;19993;-87
2022/06/21 00:38:46;;;;;;;;;;;12.10;99.90;;;;;;5065384;28;19948;-87
2022/06/21 00:41:14;;;;;;;;;;;12.00;99.90;;;;;;5065349;28;19999;-87
2022/06/21 00:43:42;;;;;;;;;;;11.90;99.90;;;;;;5065082;28;19948;-87
2022/06/21 00:46:21;;;;;;;;;;;11.90;99.90;;;;;;5064550;28;19940;-87
2022/06/21 00:48:57;;;;;;;;;;;11.90;99.90;;;;;;5072816;28;19928;-87
2022/06/21 00:51:28;;;;;;;;;;;11.80;99.90;;;;;;5065737;28;19921;-87
2022/06/21 00:53:56;;;;;;;;;;;11.80;99.90;;;;;;5065387;28;19952;-87
2022/06/21 00:56:26;;;;;;;;;;;11.80;99.90;;;;;;5064955;28;19921;-87
2022/06/21 00:58:52;;;;;;;;;;;11.80;99.90;;;;;;5064879;28;20274;-87
2022/06/21 01:01:21;;;;;;;;;;;11.80;99.90;;;;;;5064851;28;19948;-87
2022/06/21 01:03:51;;;;;;;;;;;11.70;99.90;;;;;;5064617;28;19928;-90
2022/06/21 01:06:19;;;;;;;;;;;11.60;99.90;;;;;;5064557;28;19921;-87
2022/06/21 01:08:49;;;;;;;;;;;11.50;99.90;;;;;;5064761;28;19928;-87
2022/06/21 01:11:18;;;;;;;;;;;11.50;99.90;;;;;;5064725;28;19921;-87
2022/06/21 01:13:46;;;;;;;;;;;11.50;99.90;;;;;;5064568;28;19921;-87
2022/06/21 01:16:13;;;;;;;;;;;11.40;99.90;;;;;;5064221;28;19944;-87
2022/06/21 01:18:40;;;;;;;;;;;11.40;99.90;;;;;;5064529;28;19921;-87
2022/06/21 01:21:08;;;;;;;;;;;11.40;99.90;;;;;;5065347;28;19940;-87
2022/06/21 01:23:43;;;;;;;;;;;11.40;99.90;;;;;;5078481;22;19936;-73
2022/06/21 01:26:19;;;;;;;;;;;11.40;99.90;;;;;;5060491;28;19927;-73
2022/06/21 01:28:48;;;;;;;;;;;11.40;99.90;;;;;;5055595;28;20208;-72
2022/06/21 01:31:15;;;;;;;;;;;11.30;99.90;;;;;;5041757;28;19977;-71
2022/06/21 01:33:42;;;;;;;;;;;11.30;99.90;;;;;;5041961;28;19928;-72
2022/06/21 01:36:11;;;;;;;;;;;11.30;99.90;;;;;;5043444;28;19953;-72
2022/06/21 01:38:39;;;;;;;;;;;11.30;99.90;;;;;;5042670;28;19952;-73
2022/06/21 01:41:09;;;;;;;;;;;11.30;99.90;;;;;;5043736;28;19979;-72
2022/06/21 01:43:37;;;;;;;;;;;11.20;99.90;;;;;;5043150;28;19989;-72
2022/06/21 01:46:08;;;;;;;;;;;11.20;99.90;;;;;;5048899;28;19956;-72
2022/06/21 01:48:35;;;;;;;;;;;11.20;99.90;;;;;;5036555;28;19952;-73
2022/06/21 01:51:04;;;;;;;;;;;11.20;99.90;;;;;;5042960;28;19959;-73
2022/06/21 01:53:31;;;;;;;;;;;11.10;99.90;;;;;;5048293;28;19922;-72
2022/06/21 01:55:59;;;;;;;;;;;11.10;99.90;;;;;;5032111;28;19947;-72
2022/06/21 01:58:27;;;;;;;;;;;11.10;99.90;;;;;;5043409;28;19984;-72
2022/06/21 02:00:56;;;;;;;;;;;11.00;99.90;;;;;;5028911;28;19963;-72
2022/06/21 02:03:27;;;;;;;;;;;11.00;99.90;;;;;;5023905;28;20255;-72
2022/06/21 02:05:55;;;;;;;;;;;11.00;99.90;;;;;;5023223;28;19937;-72
2022/06/21 02:08:25;;;;;;;;;;;10.90;99.90;;;;;;5025886;28;19922;-72
2022/06/21 02:10:54;;;;;;;;;;;10.80;99.90;;;;;;5043027;28;19989;-72
2022/06/21 02:13:24;;;;;;;;;;;10.80;99.90;;;;;;5043560;28;19964;-72
2022/06/21 02:15:54;;;;;;;;;;;10.80;99.90;;;;;;5042952;28;19953;-72
2022/06/21 02:18:21;;;;;;;;;;;10.80;99.90;;;;;;5059677;28;19921;-72
2022/06/21 02:20:53;;;;;;;;;;;10.70;99.90;;;;;;5043002;28;19921;-72
2022/06/21 02:23:22;;;;;;;;;;;10.70;99.90;;;;;;5035253;28;19922;-72
2022/06/21 02:25:49;;;;;;;;;;;10.60;99.90;;;;;;5035238;28;19921;-71
2022/06/21 02:28:17;;;;;;;;;;;10.60;99.90;;;;;;5043289;28;19956;-72
2022/06/21 02:30:45;;;;;;;;;;;10.60;99.90;;;;;;5043150;28;19956;-72
2022/06/21 02:33:13;;;;;;;;;;;10.50;99.90;;;;;;5043216;28;20205;-72
2022/06/21 02:35:43;;;;;;;;;;;10.50;99.90;;;;;;5041668;28;19959;-71
2022/06/21 02:38:13;;;;;;;;;;;10.40;99.90;;;;;;5043210;28;19925;-72
2022/06/21 02:40:44;;;;;;;;;;;10.40;99.90;;;;;;5024894;28;19952;-72
2022/06/21 02:43:13;;;;;;;;;;;10.30;99.90;;;;;;5022631;28;19922;-72
2022/06/21 02:45:47;;;;;;;;;;;10.30;99.90;;;;;;5024326;28;19980;-72
2022/06/21 02:48:18;;;;;;;;;;;10.30;99.90;;;;;;5023801;28;19957;-72
2022/06/21 02:50:47;;;;;;;;;;;10.20;99.90;;;;;;5020524;28;19985;-71
2022/06/21 02:53:18;;;;;;;;;;;10.10;99.90;;;;;;5031348;28;19957;-72
2022/06/21 02:55:46;;;;;;;;;;;10.10;99.90;;;;;;5024315;28;20316;-72
2022/06/21 02:58:16;;;;;;;;;;;10.10;99.90;;;;;;5036834;28;19953;-72
2022/06/21 03:00:43;;;;;;;;;;;10.10;99.90;;;;;;5037625;28;19959;-72
2022/06/21 03:03:14;;;;;;;;;;;10.00;99.90;;;;;;5023120;28;20217;-72
2022/06/21 03:05:40;;;;;;;;;;;10.10;99.90;;;;;;5033254;28;19988;-72
2022/06/21 03:08:07;;;;;;;;;;;10.10;99.90;;;;;;5042388;28;20174;-72
2022/06/21 03:10:38;;;;;;;;;;;10.10;99.90;;;;;;5045236;28;19988;-72
2022/06/21 03:13:07;;;;;;;;;;;10.10;99.90;;;;;;5046442;28;19952;-72
2022/06/21 03:15:34;;;;;;;;;;;10.10;99.90;;;;;;5045418;28;19929;-72
2022/06/21 03:18:02;;;;;;;;;;;10.00;99.90;;;;;;5046728;28;19921;-72
2022/06/21 03:20:31;;;;;;;;;;;10.00;99.90;;;;;;5041316;28;19960;-71
2022/06/21 03:22:58;;;;;;;;;;;10.00;99.90;;;;;;5029776;28;19959;-71
2022/06/21 03:25:27;;;;;;;;;;;9.90;99.90;;;;;;5045814;28;20208;-72
2022/06/21 03:27:56;;;;;;;;;;;9.90;99.90;;;;;;5046514;28;19926;-72
2022/06/21 03:30:25;;;;;;;;;;;9.90;99.90;;;;;;5039254;28;20220;-72
2022/06/21 03:32:53;;;;;;;;;;;9.80;99.90;;;;;;5028895;28;19921;-71
2022/06/21 03:35:20;;;;;;;;;;;9.90;99.90;;;;;;5044914;28;20228;-72
2022/06/21 03:37:47;;;;;;;;;;;9.80;99.90;;;;;;5046266;28;20236;-72
2022/06/21 03:43:06;;;;;;;;;;;9.90;99.90;;;;;;5044562;28;19927;-72
2022/06/21 03:45:35;;;;;;;;;;;9.80;99.90;;;;;;5045029;28;19957;-72
2022/06/21 03:48:09;;;;;;;;;;;9.80;99.90;;;;;;5043572;28;19928;-72
2022/06/21 03:50:37;;;;;;;;;;;9.80;99.90;;;;;;5044613;28;20101;-72
2022/06/21 03:53:08;;;;;;;;;;;9.90;99.90;;;;;;5045446;28;20119;-72
2022/06/21 03:55:40;;;;;;;;;;;9.90;99.90;;;;;;5045336;28;20232;-72
2022/06/21 03:58:10;;;;;;;;;;;9.90;99.90;;;;;;5045282;28;20204;-73
2022/06/21 04:00:40;;;;;;;;;;;9.90;99.90;;;;;;5036865;28;19983;-73
2022/06/21 04:03:10;;;;;;;;;;;9.90;99.90;;;;;;5042006;28;19929;-73
2022/06/21 04:05:41;;;;;;;;;;;9.90;99.90;;;;;;5051523;28;19953;-72
2022/06/21 04:08:12;;;;;;;;;;;9.90;99.90;;;;;;5054051;28;19968;-73
2022/06/21 04:10:42;;;;;;;;;;;9.90;99.90;;;;;;5052424;28;19984;-73
2022/06/21 04:13:13;;;;;;;;;;;9.90;99.90;;;;;;5045645;28;19971;-72
2022/06/21 04:15:45;;;;;;;;;;;9.90;99.90;;;;;;5036184;28;20240;-72
2022/06/21 04:18:15;;;;;;;;;;;9.90;99.90;;;;;;5053777;28;19921;-72
2022/06/21 04:20:44;;;;;;;;;;;10.00;99.90;;;;;;5056709;28;19984;-72
2022/06/21 04:23:13;;;;;;;;;;;10.00;99.90;;;;;;5065436;28;19920;-72
2022/06/21 04:25:45;;;;;;;;;;;10.10;99.90;;;;;;5064562;28;19929;-72
2022/06/21 04:31:03;;;;;;;;;;;10.20;99.90;;;;;;5033130;28;19925;-72
2022/06/21 04:33:32;;;;;;;;;;;10.30;99.90;;;;;;5057100;28;19921;-72
2022/06/21 04:36:01;;;;;;;;;;;10.40;99.90;;;;;;5055004;28;19928;-72
2022/06/21 04:38:30;;;;;;;;;;;10.40;99.90;;;;;;5036660;28;19921;-72
2022/06/21 04:40:58;;;;;;;;;;;10.50;99.90;;;;;;5025555;28;19953;-73
2022/06/21 04:43:29;;;;;;;;;;;10.50;99.90;;;;;;5025704;28;20228;-73
2022/06/21 04:45:59;;;;;;;;;;;10.60;99.90;;;;;;5024828;28;19952;-72
2022/06/21 04:48:31;;;;;;;;;;;10.70;99.90;;;;;;5030222;28;20173;-72
2022/06/21 04:51:00;;;;;;;;;;;10.80;99.90;;;;;;5034770;28;20119;-72
2022/06/21 04:53:29;;;;;;;;;;;10.90;99.90;;;;;;5039022;28;20216;-73
2022/06/21 04:56:00;;;;;;;;;;;11.00;99.90;;;;;;5048520;28;20171;-74
2022/06/21 04:58:29;;;;;;;;;;;11.10;99.90;;;;;;5046237;28;19928;-73
2022/06/21 05:00:56;;;;;;;;;;;11.20;99.90;;;;;;5061344;28;19966;-71
2022/06/21 05:03:27;;;;;;;;;;;11.20;99.90;;;;;;5047358;28;20205;-71
2022/06/21 05:05:53;;;;;;;;;;;11.30;99.90;;;;;;5047810;28;19921;-71
2022/06/21 05:08:22;;;;;;;;;;;11.40;99.90;;;;;;5052131;28;19975;-71
2022/06/21 05:10:49;;;;;;;;;;;11.50;99.90;;;;;;5044241;28;19983;-72
2022/06/21 05:13:20;;;;;;;;;;;11.60;99.90;;;;;;5044282;28;19921;-72
2022/06/21 05:15:48;;;;;;;;;;;11.80;99.90;;;;;;5043652;28;19933;-72
2022/06/21 05:18:18;;;;;;;;;;;11.90;99.90;;;;;;5042987;28;19921;-72
2022/06/21 05:20:47;;;;;;;;;;;12.00;99.90;;;;;;5044201;28;19928;-71
2022/06/21 05:23:14;;;;;;;;;;;12.20;99.90;;;;;;5053928;28;19960;-72
2022/06/21 05:25:42;;;;;;;;;;;12.20;99.90;;;;;;5043800;28;19921;-71
2022/06/21 05:28:13;;;;;;;;;;;12.30;99.90;;;;;;5044200;28;19993;-71
2022/06/21 05:30:41;;;;;;;;;;;12.50;99.90;;;;;;5043668;28;19921;-72
2022/06/21 05:33:12;;;;;;;;;;;12.60;99.90;;;;;;5043541;28;19929;-72
2022/06/21 05:35:39;;;;;;;;;;;12.80;99.90;;;;;;5034797;28;19928;-72
2022/06/21 05:38:07;;;;;;;;;;;13.00;99.90;;;;;;5049422;28;19927;-73
2022/06/21 05:40:39;;;;;;;;;;;13.10;99.90;;;;;;5044009;28;19921;-72
2022/06/21 05:43:11;;;;;;;;;;;13.30;99.90;;;;;;5043813;28;19965;-70
2022/06/21 05:45:39;;;;;;;;;;;13.40;99.90;;;;;;5034347;28;19956;-71
2022/06/21 05:48:09;;;;;;;;;;;13.50;99.90;;;;;;5027087;28;19933;-71
2022/06/21 05:50:37;;;;;;;;;;;13.70;99.90;;;;;;5042634;28;19921;-74
2022/06/21 05:53:08;;;;;;;;;;;13.80;99.90;;;;;;5044273;28;19925;-71
2022/06/21 05:55:37;;;;;;;;;;;14.00;99.90;;;;;;5043548;28;19925;-71
2022/06/21 05:58:05;;;;;;;;;;;14.10;99.90;;;;;;5041535;28;19956;-70
2022/06/21 06:00:34;;;;;;;;;;;14.30;99.90;;;;;;5023811;28;19941;-70
2022/06/21 06:03:04;;;;;;;;;;;14.40;99.90;;;;;;5024029;28;19921;-71
2022/06/21 06:05:32;;;;;;;;;;;14.60;99.90;;;;;;5029735;28;19929;-70
2022/06/21 06:08:02;;;;;;;;;;;14.70;99.90;;;;;;5043776;28;19925;-74
2022/06/21 06:10:29;;;;;;;;;;;14.90;99.90;;;;;;5044049;28;20161;-71
2022/06/21 06:12:57;;;;;;;;;;;14.90;99.90;;;;;;5043785;28;19963;-70
2022/06/21 06:15:25;;;;;;;;;;;15.10;99.90;;;;;;5042940;28;19952;-70
2022/06/21 06:17:55;;;;;;;;;;;15.00;99.90;;;;;;5043484;28;20267;-70
2022/06/21 06:20:25;;;;;;;;;;;15.10;99.90;;;;;;5038139;28;19984;-70
2022/06/21 06:22:57;;;;;;;;;;;15.20;99.90;;;;;;5023581;28;19984;-70
2022/06/21 06:25:27;;;;;;;;;;;15.20;99.90;;;;;;5031756;28;19999;-70
2022/06/21 06:27:57;;;;;;;;;;;15.30;99.90;;;;;;5035197;28;19927;-70
2022/06/21 06:30:25;;;;;;;;;;;15.20;99.90;;;;;;5038927;28;20244;-70
2022/06/21 06:32:56;;;;;;;;;;;15.30;99.90;;;;;;5026830;28;19928;-70
2022/06/21 06:35:24;;;;;;;;;;;15.30;99.90;;;;;;5029408;28;20174;-70
2022/06/21 06:37:52;;;;;;;;;;;15.50;99.90;;;;;;5039492;28;19945;-70
2022/06/21 06:40:21;;;;;;;;;;;15.60;99.90;;;;;;5023143;28;19984;-70
2022/06/21 06:42:51;;;;;;;;;;;15.60;99.90;;;;;;5028509;28;19937;-70
2022/06/21 06:45:20;;;;;;;;;;;15.70;99.90;;;;;;5036480;28;19988;-70
2022/06/21 06:47:48;;;;;;;;;;;15.80;99.90;;;;;;5030742;28;19964;-70
2022/06/21 06:50:17;;;;;;;;;;;15.80;99.90;;;;;;5032480;28;19960;-69
2022/06/21 06:52:48;;;;;;;;;;;15.90;99.90;;;;;;5047104;28;19987;-69
2022/06/21 06:55:17;;;;;;;;;;;16.00;99.90;;;;;;5043570;28;19952;-69
2022/06/21 06:57:47;;;;;;;;;;;16.10;99.90;;;;;;5031144;28;20200;-69
2022/06/21 07:00:18;;;;;;;;;;;16.10;99.90;;;;;;5040873;28;19922;-70
2022/06/21 07:02:48;;;;;;;;;;;16.20;99.90;;;;;;5047041;28;19921;-70
2022/06/21 07:05:19;;;;;;;;;;;16.30;99.90;;;;;;5044996;28;19964;-69
2022/06/21 07:07:48;;;;;;;;;;;16.40;99.90;;;;;;5046566;28;20319;-69
2022/06/21 07:10:17;;;;;;;;;;;16.40;99.90;;;;;;5046876;28;19941;-69
2022/06/21 07:12:44;;;;;;;;;;;16.40;99.90;;;;;;5047465;28;19996;-68
2022/06/21 07:15:12;;;;;;;;;;;16.50;99.90;;;;;;5034996;28;20235;-70
2022/06/21 07:17:41;;;;;;;;;;;16.50;99.90;;;;;;5027079;28;19953;-69
2022/06/21 07:20:14;;;;;;;;;;;16.60;99.90;;;;;;5028892;28;20121;-69
2022/06/21 07:22:40;;;;;;;;;;;16.60;99.90;;;;;;5027164;28;19928;-69
2022/06/21 07:25:13;;;;;;;;;;;16.60;99.90;;;;;;5024606;28;19953;-70
2022/06/21 07:27:42;;;;;;;;;;;16.60;99.90;;;;;;5026938;28;19921;-70
2022/06/21 07:30:10;;;;;;;;;;;16.60;99.90;;;;;;5024571;28;19949;-70
2022/06/21 07:32:38;;;;;;;;;;;16.70;99.90;;;;;;5026953;28;19988;-70
2022/06/21 07:35:08;;;;;;;;;;;16.80;99.90;;;;;;5026810;28;20225;-70
2022/06/21 07:37:36;;;;;;;;;;;16.90;99.90;;;;;;5026436;28;20264;-70
2022/06/21 07:40:05;;;;;;;;;;;16.90;99.90;;;;;;5026779;28;19952;-70
2022/06/21 07:42:34;;;;;;;;;;;17.00;99.90;;;;;;5042933;28;19921;-70
2022/06/21 07:45:03;;;;;;;;;;;17.10;99.90;;;;;;5041280;28;19959;-70
2022/06/21 07:47:32;;;;;;;;;;;17.20;99.90;;;;;;5046067;28;19921;-70
2022/06/21 07:50:03;;;;;;;;;;;17.30;99.90;;;;;;5035478;28;20228;-69
2022/06/21 07:52:32;;;;;;;;;;;17.40;99.90;;;;;;5064593;28;19971;-69
2022/06/21 07:55:00;;;;;;;;;;;17.40;99.90;;;;;;5056245;28;19988;-69
2022/06/21 07:57:29;;;;;;;;;;;17.40;99.90;;;;;;5046164;28;19976;-69
2022/06/21 07:59:59;;;;;;;;;;;17.40;99.90;;;;;;5067981;22;19920;-68
2022/06/21 08:08:02;;;;;;;;;;;17.60;99.90;;;;;;5065259;28;19928;-68
2022/06/21 08:10:32;;;;;;;;;;;17.70;99.90;;;;;;5063078;28;20194;-68
2022/06/21 08:12:59;;;;;;;;;;;17.80;99.90;;;;;;5036450;28;19921;-68
2022/06/21 08:15:27;;;;;;;;;;;17.90;99.90;;;;;;5044718;28;19993;-68
2022/06/21 08:17:55;;;;;;;;;;;17.90;99.90;;;;;;5045674;28;19959;-67
2022/06/21 08:20:24;;;;;;;;;;;18.00;99.90;;;;;;5045251;28;19928;-68
2022/06/21 08:22:55;;;;;;;;;;;18.10;99.90;;;;;;5044818;28;19953;-68
2022/06/21 08:25:28;;;;;;;;;;;18.10;99.90;;;;;;5044644;28;19924;-68
2022/06/21 08:27:57;;;;;;;;;;;18.20;99.90;;;;;;5037015;28;19945;-68
2022/06/21 08:30:25;;;;;;;;;;;18.30;99.90;;;;;;5042739;28;20327;-68
2022/06/21 08:32:55;;;;;;;;;;;18.30;99.90;;;;;;5044498;28;19963;-68
2022/06/21 08:35:25;;;;;;;;;;;18.40;99.90;;;;;;5044149;28;19925;-68
2022/06/21 08:37:53;;;;;;;;;;;18.40;99.90;;;;;;5045252;28;19929;-67
2022/06/21 08:40:29;;;;;;;;;;;18.40;99.90;;;;;;5025184;28;20232;-68
2022/06/21 08:43:05;;;;;;;;;;;18.50;99.90;;;;;;5042255;28;19963;-68
2022/06/21 08:45:42;;;;;;;;;;;18.50;99.90;;;;;;5034241;28;19935;-68
2022/06/21 08:48:26;;;;;;;;;;;18.50;99.90;;;;;;5044302;28;19968;-68
2022/06/21 08:50:58;;;;;;;;;;;18.50;99.90;;;;;;5044781;28;20247;-68
2022/06/21 08:53:34;;;;;;;;;;;18.60;99.90;;;;;;5044860;28;19921;-68
2022/06/21 08:56:07;;;;;;;;;;;18.70;99.90;;;;;;5043689;28;20228;-67
2022/06/21 08:58:39;;;;;;;;;;;18.70;99.90;;;;;;5044866;28;19996;-68
2022/06/21 09:01:10;;;;;;;;;;;18.80;99.90;;;;;;5043792;28;19964;-68
2022/06/21 09:03:50;;;;;;;;;;;18.90;99.90;;;;;;5040791;28;19929;-67
2022/06/21 09:06:19;;;;;;;;;;;19.00;99.90;;;;;;5042873;28;19929;-68
2022/06/21 09:08:59;;;;;;;;;;;19.10;99.90;;;;;;5043658;28;19951;-68
2022/06/21 09:11:32;;;;;;;;;;;19.40;99.90;;;;;;5044516;28;20153;-67
2022/06/21 09:14:19;;;;;;;;;;;19.60;99.90;;;;;;5044031;28;20264;-68
2022/06/21 09:16:51;;;;;;;;;;;19.70;99.90;;;;;;5024013;28;19921;-67
2022/06/21 09:19:22;;;;;;;;;;;19.80;99.90;;;;;;5024370;28;19964;-68
2022/06/21 09:21:53;;;;;;;;;;;19.90;99.90;;;;;;5024906;28;19981;-68
2022/06/21 09:24:28;;;;;;;;;;;20.10;99.90;;;;;;5029927;28;20209;-68
2022/06/21 09:26:59;;;;;;;;;;;20.20;99.90;;;;;;5039538;28;20177;-68
2022/06/21 09:29:28;;;;;;;;;;;20.30;99.90;;;;;;5030897;28;19980;-68
2022/06/21 09:32:10;;;;;;;;;;;20.30;99.90;;;;;;5044031;28;19921;-68
2022/06/21 09:34:42;;;;;;;;;;;20.40;99.90;;;;;;5036698;28;19957;-68
2022/06/21 09:37:17;;;;;;;;;;;20.50;99.90;;;;;;5043557;28;19921;-68
2022/06/21 09:39:47;;;;;;;;;;;20.60;99.90;;;;;;5044025;28;19963;-68
2022/06/21 09:42:19;;;;;;;;;;;20.70;99.90;;;;;;5043419;28;19988;-68
2022/06/21 09:44:48;;;;;;;;;;;20.70;99.10;;;;;;5043769;28;19929;-68
2022/06/21 09:47:21;;;;;;;;;;;20.70;99.90;;;;;;5039484;28;19967;-68
2022/06/21 09:49:51;;;;;;;;;;;20.90;99.90;;;;;;5041051;28;19953;-68
2022/06/21 09:52:23;;;;;;;;;;;21.00;99.90;;;;;;5043196;28;19921;-68
2022/06/21 09:54:54;;;;;;;;;;;21.10;99.90;;;;;;5041913;28;20008;-68
2022/06/21 09:57:27;;;;;;;;;;;21.30;99.90;;;;;;5043304;28;19921;-68
2022/06/21 09:59:59;;;;;;;;;;;21.40;99.90;;;;;;5042209;28;20172;-68
2022/06/21 10:02:31;;;;;;;;;;;21.50;99.90;;;;;;5044005;28;19928;-68
2022/06/21 10:05:03;;;;;;;;;;;21.60;99.90;;;;;;5043610;28;19964;-68
2022/06/21 10:07:34;;;;;;;;;;;21.70;99.90;;;;;;5042880;28;20327;-68
2022/06/21 10:10:05;;;;;;;;;;;21.80;99.90;;;;;;5042327;28;19921;-68
2022/06/21 10:12:41;;;;;;;;;;;21.90;99.70;;;;;;5043852;28;19956;-68
2022/06/21 10:15:20;;;;;;;;;;;22.00;99.00;;;;;;5043827;28;20121;-67
2022/06/21 10:17:55;;;;;;;;;;;22.10;98.10;;;;;;5043800;28;19927;-68
2022/06/21 10:20:30;;;;;;;;;;;22.20;97.20;;;;;;5043800;28;19959;-67
2022/06/21 10:22:59;;;;;;;;;;;22.20;97.80;;;;;;5043653;28;20212;-67
2022/06/21 10:25:33;;;;;;;;;;;22.30;97.90;;;;;;5043083;28;19971;-68
2022/06/21 10:28:12;;;;;;;;;;;22.40;98.60;;;;;;5043800;28;19952;-67
2022/06/21 10:30:49;;;;;;;;;;;22.60;97.60;;;;;;5023751;28;19960;-67
2022/06/21 10:33:25;;;;;;;;;;;22.70;98.80;;;;;;5023860;28;19959;-67
2022/06/21 10:35:58;;;;;;;;;;;22.80;96.90;;;;;;5023320;28;19922;-68
2022/06/21 10:38:31;;;;;;;;;;;22.90;97.60;;;;;;5023715;28;19949;-68
2022/06/21 10:41:02;;;;;;;;;;;23.10;97.40;;;;;;5024542;28;19952;-68
2022/06/21 10:43:46;;;;;;;;;;;23.30;95.90;;;;;;5043829;28;19928;-70
2022/06/21 10:46:14;;;;;;;;;;;23.40;95.50;;;;;;5042982;28;19988;-68
2022/06/21 10:48:54;;;;;;;;;;;23.50;94.40;;;;;;5042388;28;20010;-70
2022/06/21 10:51:33;;;;;;;;;;;23.40;95.40;;;;;;5042946;28;19921;-69
2022/06/21 10:54:04;;;;;;;;;;;23.50;94.30;;;;;;5043020;28;20182;-70
2022/06/21 10:59:29;;;;;;;;;;;23.60;93.20;;;;;;5042383;28;19955;-69
2022/06/21 11:01:58;;;;;;;;;;;23.60;93.10;;;;;;5042824;28;19988;-70
2022/06/21 11:04:48;;;;;;;;;;;23.80;94.00;;;;;;5039452;28;19928;-70
2022/06/21 11:07:19;;;;;;;;;;;23.80;93.00;;;;;;5032884;28;19953;-69
2022/06/21 11:09:50;;;;;;;;;;;23.80;91.80;;;;;;5042239;28;19928;-70
2022/06/21 11:15:10;;;;;;;;;;;23.90;90.10;;;;;;5040134;28;20157;-69
2022/06/21 11:17:42;;;;;;;;;;;24.00;91.50;;;;;;5034283;28;20020;-69
2022/06/21 11:20:12;;;;;;;;;;;24.10;91.00;;;;;;5031466;28;19921;-69
2022/06/21 11:22:41;;;;;;;;;;;24.10;89.40;;;;;;5036543;28;19921;-70
2022/06/21 11:25:26;;;;;;;;;;;24.00;91.00;;;;;;5042856;28;19921;-70
2022/06/21 11:27:56;;;;;;;;;;;24.10;91.20;;;;;;5042467;28;19928;-70
2022/06/21 11:30:29;;;;;;;;;;;24.20;91.70;;;;;;5042841;28;19957;-69
2022/06/21 11:33:01;;;;;;;;;;;24.30;90.70;;;;;;5046139;28;19968;-69
2022/06/21 11:35:31;;;;;;;;;;;24.40;91.30;;;;;;5042871;28;19963;-67
2022/06/21 11:38:07;;;;;;;;;;;24.70;91.50;;;;;;5046083;28;19921;-68
2022/06/21 11:40:46;;;;;;;;;;;25.00;92.00;;;;;;5045162;28;19952;-68
2022/06/21 11:43:22;;;;;;;;;;;25.20;91.10;;;;;;5044813;28;19924;-69
2022/06/21 11:45:51;;;;;;;;;;;25.30;88.50;;;;;;5044718;28;19921;-68
2022/06/21 11:48:26;;;;;;;;;;;25.20;89.60;;;;;;5045266;28;20231;-68
2022/06/21 11:50:57;;;;;;;;;;;25.20;90.40;;;;;;5042989;28;19921;-67
2022/06/21 11:53:32;;;;;;;;;;;25.20;85.50;;;;;;5045135;28;19945;-67
2022/06/21 11:56:01;;;;;;;;;;;25.30;85.80;;;;;;5044274;28;19960;-67
2022/06/21 11:58:32;;;;;;;;;;;25.50;88.20;;;;;;5042495;28;19921;-68
2022/06/21 12:01:03;;;;;;;;;;;25.80;86.80;;;;;;5039949;28;20165;-68
2022/06/21 12:03:37;;;;;;;;;;;26.00;88.70;;;;;;5043383;28;19936;-68
2022/06/21 12:06:08;;;;;;;;;;;26.10;84.70;;;;;;5032685;28;19929;-67
2022/06/21 12:08:38;;;;;;;;;;;26.20;86.00;;;;;;5035212;28;20185;-67
2022/06/21 12:11:13;;;;;;;;;;;26.40;85.90;;;;;;5044497;28;20257;-67
2022/06/21 12:13:45;;;;;;;;;;;26.60;84.60;;;;;;5042307;28;19964;-68
2022/06/21 12:16:18;;;;;;;;;;;26.80;84.20;;;;;;5041229;28;19986;-67
2022/06/21 12:18:48;;;;;;;;;;;26.90;81.70;;;;;;5044384;28;19963;-68
2022/06/21 12:21:17;;;;;;;;;;;27.00;82.50;;;;;;5034004;28;19961;-67
2022/06/21 12:23:46;;;;;;;;;;;27.00;81.10;;;;;;5045591;28;19959;-67
2022/06/21 12:26:15;;;;;;;;;;;27.10;83.50;;;;;;5044831;28;19960;-68
2022/06/21 12:28:42;;;;;;;;;;;27.30;81.40;;;;;;5042142;28;19969;-68
2022/06/21 12:31:14;;;;;;;;;;;27.40;80.10;;;;;;5044856;28;19929;-68
2022/06/21 12:33:42;;;;;;;;;;;27.50;78.30;;;;;;5044837;28;19944;-68
2022/06/21 12:36:27;;;;;;;;;;;27.50;80.20;;;;;;5044664;28;19921;-69
2022/06/21 12:38:56;;;;;;;;;;;27.50;79.90;;;;;;5038985;28;19936;-68
2022/06/21 12:41:30;;;;;;;;;;;27.70;78.80;;;;;;5044733;28;19964;-68
2022/06/21 12:44:03;;;;;;;;;;;27.70;77.80;;;;;;5044679;28;19927;-67
2022/06/21 12:46:34;;;;;;;;;;;27.60;78.30;;;;;;5041287;28;20102;-68
2022/06/21 12:49:19;;;;;;;;;;;27.60;79.20;;;;;;5041047;28;19928;-68
2022/06/21 12:51:51;;;;;;;;;;;27.60;79.50;;;;;;5041357;28;19957;-68
2022/06/21 12:54:32;;;;;;;;;;;27.90;78.20;;;;;;5031918;28;19921;-68
2022/06/21 12:57:11;;;;;;;;;;;28.20;78.50;;;;;;5040829;28;19925;-68
2022/06/21 12:59:55;;;;;;;;;;;28.70;75.90;;;;;;5041606;28;19944;-68
2022/06/21 13:02:39;;;;;;;;;;;28.80;76.40;;;;;;5044373;28;20017;-68
2022/06/21 13:05:23;;;;;;;;;;;29.00;75.80;;;;;;5043047;28;19971;-68
2022/06/21 13:10:49;;;;;;;;;;;29.20;72.60;;;;;;5114945;27;19948;-69
2022/06/21 13:13:23;;;;;;;;;;;29.20;69.60;;;;;;5100832;28;19920;-69
2022/06/21 13:15:56;;;;;;;;;;;29.10;70.80;;;;;;5100183;28;19965;-69
2022/06/21 13:18:43;;;;;;;;;;;29.20;70.40;;;;;;5098056;28;19992;-69
2022/06/21 13:21:15;;;;;;;;;;;29.30;69.70;;;;;;5097574;28;19927;-69
2022/06/21 13:23:52;;;;;;;;;;;29.10;69.50;;;;;;5093572;28;19920;-69
2022/06/21 13:26:26;;;;;;;;;;;29.20;69.80;;;;;;5100162;28;19992;-69
2022/06/21 13:29:02;;;;;;;;;;;29.20;69.60;;;;;;5099764;28;19928;-69
2022/06/21 13:31:33;;;;;;;;;;;29.50;69.50;;;;;;5100681;28;19927;-69
2022/06/21 13:34:01;;;;;;;;;;;29.80;70.10;;;;;;5100201;28;20187;-69
2022/06/21 13:36:32;;;;;;;;;;;30.20;67.70;;;;;;5099931;28;19966;-69
2022/06/21 13:39:01;;;;;;;;;;;30.40;66.30;;;;;;5103585;28;20222;-69
2022/06/21 13:44:20;;;;;;;;;;;30.50;63.80;;;;;;5082647;28;19927;-69
2022/06/21 13:46:49;;;;;;;;;;;30.50;64.70;;;;;;5098964;28;20018;-69
2022/06/21 13:49:20;;;;;;;;;;;30.60;62.20;;;;;;5097052;28;19958;-69
2022/06/21 13:51:49;;;;;;;;;;;30.60;63.60;;;;;;5099157;28;20208;-69
2022/06/21 13:54:17;;;;;;;;;;;30.40;63.10;;;;;;5094085;28;19920;-69
2022/06/21 13:56:48;;;;;;;;;;;30.40;63.90;;;;;;5090985;28;20182;-69
2022/06/21 13:59:17;;;;;;;;;;;30.50;63.80;;;;;;5087200;28;19935;-69
2022/06/21 14:01:46;;;;;;;;;;;30.60;63.70;;;;;;5099638;28;19927;-70
2022/06/21 14:04:17;;;;;;;;;;;30.70;62.40;;;;;;5099932;28;19988;-69
2022/06/21 14:06:48;;;;;;;;;;;30.80;62.50;;;;;;5104799;28;20257;-70
2022/06/21 14:09:18;;;;;;;;;;;30.60;60.90;;;;;;5114837;28;19983;-68
2022/06/21 14:11:49;;;;;;;;;;;30.60;61.50;;;;;;5117969;28;19987;-68
2022/06/21 14:14:20;;;;;;;;;;;30.40;61.40;;;;;;5119275;28;19920;-68
2022/06/21 14:16:49;;;;;;;;;;;30.10;62.20;;;;;;5115939;28;19983;-70
2022/06/21 14:19:19;;;;;;;;;;;30.10;65.00;;;;;;5120287;28;19983;-69
2022/06/21 14:21:50;;;;;;;;;;;30.40;64.40;;;;;;5108647;28;19983;-71
2022/06/21 14:24:18;;;;;;;;;;;30.70;63.60;;;;;;5111369;28;19955;-69
2022/06/21 14:26:51;;;;;;;;;;;31.10;63.40;;;;;;5105444;28;20200;-69
2022/06/21 14:29:21;;;;;;;;;;;31.30;61.30;;;;;;5123910;28;20115;-70
2022/06/21 14:31:50;;;;;;;;;;;31.30;61.00;;;;;;5106501;28;19920;-70
2022/06/21 14:34:20;;;;;;;;;;;31.40;62.00;;;;;;5110472;28;20244;-70
2022/06/21 14:36:49;;;;;;;;;;;31.70;62.60;;;;;;5126284;28;19978;-70
2022/06/21 14:39:19;;;;;;;;;;;31.80;61.70;;;;;;5116726;28;19955;-69
2022/06/21 14:41:55;;;;;;;;;;;31.90;59.70;;;;;;5127042;28;20076;-68
2022/06/21 14:44:23;;;;;;;;;;;31.80;60.70;;;;;;5106904;28;19927;-69
2022/06/21 14:46:52;;;;;;;;;;;31.50;59.80;;;;;;5105598;28;19920;-69
2022/06/21 14:49:22;;;;;;;;;;;31.40;60.70;;;;;;5106021;28;19920;-69
2022/06/21 14:51:55;;;;;;;;;;;31.30;60.30;;;;;;5085918;28;19955;-68
2022/06/21 14:54:29;;;;;;;;;;;31.30;60.40;;;;;;5086812;28;19966;-69
2022/06/21 14:57:04;;;;;;;;;;;31.50;61.00;;;;;;5085050;28;19985;-68
2022/06/21 14:59:38;;;;;;;;;;;31.60;60.90;;;;;;5082128;28;20235;-68
2022/06/21 15:02:10;;;;;;;;;;;31.90;59.10;;;;;;5100320;28;20208;-68